Time;durP1;ratioP1;P1;durP2;ratioP2;P2;SDS_P1;SDS_P2;PMS_P1;PMS_P2;Temp;Humidity;BMP_temperature;BMP_pressure;BME280_temperature;BME280_humidity;BME280_pressure;Samples;Min_cycle;Max_cycle;Signal;HPM_P1;HPM_P2
2023/09/08 00:01:32;;;;;;;7.82;3.40;;;;;;;19.12;100.00;100908.09;5048061;28;20029;-51
2023/09/08 00:03:57;;;;;;;5.65;3.85;;;;;;;19.16;100.00;100912.78;5071086;28;20132;-53
2023/09/08 00:06:22;;;;;;;4.75;3.25;;;;;;;19.20;100.00;100914.97;5050368;28;20111;-51
2023/09/08 00:08:48;;;;;;;11.57;2.85;;;;;;;19.23;100.00;100919.88;5055504;28;20029;-51
2023/09/08 00:11:13;;;;;;;2.67;2.33;;;;;;;19.26;100.00;100912.19;5053091;28;20514;-53
2023/09/08 00:13:39;;;;;;;4.38;2.80;;;;;;;19.35;100.00;100908.03;5053097;28;20060;-51
2023/09/08 00:16:06;;;;;;;6.82;2.95;;;;;;;19.38;100.00;100904.88;5056276;28;20237;-54
2023/09/08 00:18:32;;;;;;;5.05;2.53;;;;;;;19.31;100.00;100912.28;5050467;28;20211;-52
2023/09/08 00:20:58;;;;;;;5.28;2.58;;;;;;;19.25;100.00;100907.84;5058692;28;20040;-53
2023/09/08 00:23:23;;;;;;;6.10;2.42;;;;;;;19.24;100.00;100900.03;5043448;28;20507;-49
2023/09/08 00:25:49;;;;;;;3.63;3.13;;;;;;;19.14;100.00;100901.44;5060254;28;20021;-53
2023/09/08 00:28:14;;;;;;;3.80;2.53;;;;;;;19.06;100.00;100898.31;5049215;28;20529;-52
2023/09/08 00:30:39;;;;;;;3.47;3.17;;;;;;;19.10;100.00;100896.78;5055698;28;20056;-55
2023/09/08 00:33:08;;;;;;;7.43;3.75;;;;;;;19.11;100.00;100904.59;5051879;28;20028;-54
2023/09/08 00:35:34;;;;;;;3.95;3.60;;;;;;;19.06;100.00;100901.00;5050343;28;20392;-52
2023/09/08 00:37:59;;;;;;;4.35;3.35;;;;;;;19.01;100.00;100896.34;5059573;28;20024;-54
2023/09/08 00:40:27;;;;;;;3.13;2.75;;;;;;;19.00;100.00;100894.72;5045464;28;20049;-52
2023/09/08 00:42:52;;;;;;;4.80;3.22;;;;;;;19.00;100.00;100899.25;5051242;28;20036;-51
2023/09/08 00:45:17;;;;;;;3.65;2.85;;;;;;;18.94;100.00;100904.50;5052245;28;20039;-53
2023/09/08 00:47:43;;;;;;;3.53;3.00;;;;;;;18.60;100.00;100902.66;5053186;28;20025;-53
2023/09/08 00:50:08;;;;;;;5.82;3.33;;;;;;;18.76;100.00;100907.34;5058513;28;20553;-52
2023/09/08 00:52:34;;;;;;;4.72;3.55;;;;;;;18.80;100.00;100900.47;5060709;28;20539;-55
2023/09/08 00:54:59;;;;;;;4.00;3.40;;;;;;;18.76;100.00;100904.66;5057531;28;20039;-52
2023/09/08 00:57:25;;;;;;;2.90;2.70;;;;;;;18.73;100.00;100905.09;5051571;28;20463;-49
2023/09/08 00:59:50;;;;;;;2.97;2.72;;;;;;;18.76;100.00;100907.34;5058224;28;20052;-52
2023/09/08 01:02:16;;;;;;;4.13;3.75;;;;;;;18.80;100.00;100903.13;5060208;28;20034;-49
2023/09/08 01:04:41;;;;;;;4.05;2.90;;;;;;;18.83;100.00;100897.28;5055284;28;20040;-52
2023/09/08 01:07:08;;;;;;;4.82;3.47;;;;;;;18.78;100.00;100891.81;5057720;28;20063;-49
2023/09/08 01:09:35;;;;;;;2.90;2.60;;;;;;;18.79;100.00;100892.63;5053832;28;20631;-50
2023/09/08 01:12:03;;;;;;;8.75;2.70;;;;;;;18.71;100.00;100901.81;5063629;28;20025;-49
2023/09/08 01:14:29;;;;;;;3.95;3.05;;;;;;;18.69;100.00;100894.00;5065814;28;20047;-53
2023/09/08 01:16:54;;;;;;;3.10;2.80;;;;;;;18.41;100.00;100899.28;5052938;28;20438;-54
2023/09/08 01:19:21;;;;;;;2.90;2.70;;;;;;;18.34;100.00;100902.06;5053741;28;20037;-53
2023/09/08 01:21:53;;;;;;;3.67;2.40;;;;;;;18.31;100.00;100907.91;5056286;28;20027;-54
2023/09/08 01:24:56;;;;;;;4.00;2.95;;;;;;;18.50;100.00;100908.59;5058556;28;20046;-50
2023/09/08 01:27:24;;;;;;;5.65;2.70;;;;;;;18.39;100.00;100904.88;5056013;28;20039;-49
2023/09/08 01:29:51;;;;;;;4.50;2.80;;;;;;;18.48;100.00;100903.47;5056796;28;21020;-50
2023/09/08 01:32:17;;;;;;;3.05;2.78;;;;;;;18.55;100.00;100897.16;5055641;28;20059;-54
2023/09/08 01:34:42;;;;;;;4.70;4.00;;;;;;;18.54;100.00;100907.09;5054307;28;20036;-53
2023/09/08 01:37:08;;;;;;;5.30;3.90;;;;;;;18.57;100.00;100898.56;5054815;28;20028;-54
2023/09/08 01:39:33;;;;;;;2.90;2.70;;;;;;;18.57;100.00;100901.25;5052141;28;20429;-48
2023/09/08 01:41:59;;;;;;;3.70;3.22;;;;;;;18.51;100.00;100903.00;5050235;28;20045;-51
2023/09/08 01:44:24;;;;;;;4.00;3.60;;;;;;;18.44;100.00;100896.94;5054270;28;20456;-54
2023/09/08 01:46:51;;;;;;;2.90;2.65;;;;;;;18.43;100.00;100898.00;5057616;28;20032;-50
2023/09/08 01:49:16;;;;;;;4.00;3.08;;;;;;;18.40;100.00;100893.06;5057298;28;20452;-48
2023/09/08 01:51:42;;;;;;;6.10;3.58;;;;;;;18.37;100.00;100896.22;5048423;28;20437;-53
2023/09/08 01:54:07;;;;;;;4.40;4.00;;;;;;;18.39;100.00;100899.50;5053591;28;20685;-50
2023/09/08 01:56:33;;;;;;;4.40;3.22;;;;;;;18.34;100.00;100893.19;5054713;28;20040;-51
2023/09/08 01:58:59;;;;;;;6.38;3.55;;;;;;;18.30;100.00;100887.44;5052597;28;20036;-50
2023/09/08 02:01:25;;;;;;;4.78;3.53;;;;;;;17.89;100.00;100889.16;5054285;28;20028;-48
2023/09/08 02:03:50;;;;;;;3.10;2.88;;;;;;;17.69;100.00;100899.31;5055499;28;20183;-51
2023/09/08 02:06:15;;;;;;;3.58;3.20;;;;;;;17.96;100.00;100897.09;5049257;28;20116;-48
2023/09/08 02:08:41;;;;;;;13.30;3.08;;;;;;;18.05;100.00;100891.16;5050489;28;20029;-53
2023/09/08 02:11:06;;;;;;;4.18;3.20;;;;;;;18.12;100.00;100899.09;5057116;28;20079;-53
2023/09/08 02:13:31;;;;;;;3.85;2.85;;;;;;;18.04;100.00;100905.63;5055942;28;20028;-53
2023/09/08 02:15:56;;;;;;;3.55;3.25;;;;;;;17.88;100.00;100898.22;5048467;28;20423;-52
2023/09/08 02:18:24;;;;;;;4.20;3.28;;;;;;;17.77;100.00;100912.41;5056273;28;20107;-52
2023/09/08 02:20:49;;;;;;;5.90;3.75;;;;;;;17.76;100.00;100918.78;5054411;28;20032;-53
2023/09/08 02:23:14;;;;;;;4.82;4.00;;;;;;;17.70;100.00;100911.66;5047657;28;20563;-53
2023/09/08 02:25:40;;;;;;;5.53;3.67;;;;;;;17.70;100.00;100919.72;5052330;28;20028;-54
2023/09/08 02:28:05;;;;;;;4.13;3.72;;;;;;;17.67;100.00;100921.00;5049716;28;20123;-52
2023/09/08 02:30:31;;;;;;;3.55;3.25;;;;;;;17.66;100.00;100922.84;5047748;28;20029;-50
2023/09/08 02:32:56;;;;;;;4.10;3.78;;;;;;;17.63;100.00;100928.69;5052781;28;20036;-53
2023/09/08 02:35:24;;;;;;;4.68;3.83;;;;;;;17.62;100.00;100916.31;5053293;28;20044;-52
2023/09/08 02:37:49;;;;;;;3.88;3.45;;;;;;;17.62;100.00;100904.75;5053058;28;20109;-55
2023/09/08 02:40:15;;;;;;;5.20;3.58;;;;;;;17.58;100.00;100909.78;5059381;28;20059;-49
2023/09/08 02:42:40;;;;;;;5.72;3.42;;;;;;;17.52;100.00;100910.66;5055301;28;20028;-53
2023/09/08 02:45:06;;;;;;;5.05;3.60;;;;;;;17.43;100.00;100917.41;5045825;28;20044;-50
2023/09/08 02:47:31;;;;;;;4.43;3.40;;;;;;;17.42;100.00;100913.06;5053481;28;20111;-51
2023/09/08 02:49:57;;;;;;;3.58;2.92;;;;;;;17.36;100.00;100917.47;5050045;28;20050;-51
2023/09/08 02:52:22;;;;;;;4.47;3.63;;;;;;;17.28;100.00;100927.69;5052413;28;20033;-52
2023/09/08 02:54:47;;;;;;;3.72;3.42;;;;;;;17.34;100.00;100918.72;5047588;28;20055;-53
2023/09/08 02:57:13;;;;;;;4.53;3.67;;;;;;;17.34;100.00;100918.72;5052560;28;20028;-52
2023/09/08 02:59:38;;;;;;;4.95;3.90;;;;;;;17.37;100.00;100921.81;5049938;28;20025;-52
2023/09/08 03:02:04;;;;;;;3.67;3.13;;;;;;;17.41;100.00;100914.13;5050006;28;20043;-53
2023/09/08 03:04:29;;;;;;;3.17;2.92;;;;;;;17.39;100.00;100919.69;5058362;28;20025;-52
2023/09/08 03:06:55;;;;;;;8.55;3.92;;;;;;;17.34;100.00;100913.38;5053961;28;20040;-51
2023/09/08 03:09:20;;;;;;;3.55;3.25;;;;;;;17.32;100.00;100915.44;5059835;28;20033;-53
2023/09/08 03:11:46;;;;;;;3.70;3.28;;;;;;;17.29;100.00;100910.56;5048844;28;20048;-50
2023/09/08 03:14:11;;;;;;;4.25;3.67;;;;;;;17.26;100.00;100903.78;5053611;28;20043;-51
2023/09/08 03:16:36;;;;;;;5.00;4.43;;;;;;;17.24;100.00;100908.53;5055681;28;20036;-50
2023/09/08 03:19:02;;;;;;;4.63;3.63;;;;;;;17.21;100.00;100904.44;5052092;28;20037;-50
2023/09/08 03:21:27;;;;;;;4.45;4.05;;;;;;;17.16;100.00;100912.34;5065221;28;20032;-52
2023/09/08 03:23:52;;;;;;;7.85;3.90;;;;;;;17.13;100.00;100910.09;5048840;28;20055;-54
2023/09/08 03:26:17;;;;;;;4.93;3.83;;;;;;;17.14;100.00;100908.25;5050098;28;20025;-54
2023/09/08 03:28:43;;;;;;;5.00;3.67;;;;;;;17.16;100.00;100906.16;5051916;28;20032;-51
2023/09/08 03:31:08;;;;;;;4.07;3.10;;;;;;;17.04;100.00;100903.44;5057962;28;20116;-51
2023/09/08 03:33:34;;;;;;;3.70;3.25;;;;;;;17.06;100.00;100898.66;5056139;28;20051;-52
2023/09/08 03:36:00;;;;;;;3.55;3.15;;;;;;;17.02;100.00;100902.03;5058122;28;20134;-52
2023/09/08 03:38:25;;;;;;;5.07;3.88;;;;;;;17.03;100.00;100901.78;5052017;28;20048;-50
2023/09/08 03:40:51;;;;;;;3.13;2.92;;;;;;;17.01;100.00;100901.16;5049280;28;20023;-48
2023/09/08 03:43:17;;;;;;;5.28;3.75;;;;;;;16.91;100.00;100892.84;5045728;28;20098;-53
2023/09/08 03:45:42;;;;;;;4.18;3.25;;;;;;;16.84;100.00;100894.78;5051696;28;20465;-51
2023/09/08 03:48:08;;;;;;;4.13;3.40;;;;;;;16.73;100.00;100894.44;5048228;28;20029;-49
2023/09/08 03:50:34;;;;;;;6.13;3.10;;;;;;;16.67;100.00;100898.00;5050568;28;20053;-53
2023/09/08 03:52:59;;;;;;;4.93;3.00;;;;;;;16.69;100.00;100898.59;5051735;28;20037;-49
2023/09/08 03:55:26;;;;;;;5.43;3.75;;;;;;;16.68;100.00;100899.66;5049544;28;20043;-51
2023/09/08 03:57:52;;;;;;;5.97;4.05;;;;;;;16.66;100.00;100899.03;5056057;28;20025;-53
2023/09/08 04:00:21;;;;;;;2.97;2.65;;;;;;;16.62;100.00;100894.34;5057890;28;20039;-52
2023/09/08 04:02:48;;;;;;;4.65;4.22;;;;;;;16.56;100.00;100898.72;5051818;28;20040;-53
2023/09/08 04:05:13;;;;;;;6.28;4.18;;;;;;;16.46;100.00;100895.72;5050871;28;20025;-52
2023/09/08 04:07:39;;;;;;;5.03;3.58;;;;;;;16.49;100.00;100900.66;5048090;28;20039;-51
2023/09/08 04:10:05;;;;;;;5.35;3.45;;;;;;;16.49;100.00;100901.47;5054122;28;20077;-51
2023/09/08 04:12:30;;;;;;;4.72;3.58;;;;;;;16.47;100.00;100903.56;5059049;28;20043;-52
2023/09/08 04:14:55;;;;;;;4.45;3.83;;;;;;;16.41;100.00;100906.28;5050666;28;20028;-50
2023/09/08 04:17:21;;;;;;;3.42;3.13;;;;;;;16.38;100.00;100902.19;5051443;28;20035;-54
2023/09/08 04:19:46;;;;;;;4.15;3.25;;;;;;;16.34;100.00;100912.53;5061173;28;20451;-51
2023/09/08 04:22:11;;;;;;;4.50;3.17;;;;;;;16.32;100.00;100909.25;5063474;28;20033;-51
2023/09/08 04:24:37;;;;;;;4.10;3.60;;;;;;;16.36;100.00;100915.78;5052798;28;20384;-53
2023/09/08 04:27:03;;;;;;;3.75;3.03;;;;;;;16.42;100.00;100916.78;5048105;28;20120;-53
2023/09/08 04:29:29;;;;;;;5.18;3.03;;;;;;;16.36;100.00;100921.13;5047461;28;20032;-55
2023/09/08 04:31:54;;;;;;;5.43;3.40;;;;;;;16.41;100.00;100923.16;5054056;28;20044;-49
2023/09/08 04:34:19;;;;;;;5.82;2.95;;;;;;;16.45;100.00;100921.69;5049499;28;20481;-52
2023/09/08 04:36:45;;;;;;;7.68;3.42;;;;;;;16.52;100.00;100921.63;5057551;28;20536;-54
2023/09/08 04:39:11;;;;;;;3.08;2.88;;;;;;;16.51;100.00;100933.38;5050631;28;20139;-53
2023/09/08 04:41:37;;;;;;;3.35;3.00;;;;;;;16.52;100.00;100932.31;5054250;28;20474;-51
2023/09/08 04:44:02;;;;;;;4.55;3.60;;;;;;;16.48;100.00;100931.94;5056274;28;20028;-52
2023/09/08 04:46:27;;;;;;;3.10;2.90;;;;;;;16.40;100.00;100929.56;5053570;28;20021;-50
2023/09/08 04:48:53;;;;;;;4.80;4.28;;;;;;;16.36;100.00;100931.00;5041787;28;20492;-52
2023/09/08 04:51:18;;;;;;;3.75;3.08;;;;;;;16.36;100.00;100929.16;5046467;28;20485;-51
2023/09/08 04:53:43;;;;;;;3.55;3.15;;;;;;;16.38;100.00;100933.47;5042441;28;20032;-53
2023/09/08 04:56:09;;;;;;;3.13;2.80;;;;;;;16.38;100.00;100936.16;5068725;28;20393;-52
2023/09/08 04:58:34;;;;;;;3.55;2.65;;;;;;;16.44;100.00;100943.31;5053855;28;20032;-52
2023/09/08 05:00:59;;;;;;;2.85;2.17;;;;;;;16.49;100.00;100940.78;5054455;28;20024;-53
2023/09/08 05:03:26;;;;;;;3.58;3.28;;;;;;;16.51;100.00;100939.53;5059800;28;20043;-52
2023/09/08 05:05:51;;;;;;;3.33;2.85;;;;;;;16.44;100.00;100946.78;5054129;28;20029;-51
2023/09/08 05:08:16;;;;;;;3.05;2.83;;;;;;;16.42;100.00;100946.22;5045107;28;20034;-53
2023/09/08 05:10:44;;;;;;;2.83;2.63;;;;;;;16.39;100.00;100948.50;5054086;28;20029;-54
2023/09/08 05:13:09;;;;;;;5.10;2.63;;;;;;;16.38;100.00;100947.69;5040521;28;20056;-52
2023/09/08 05:15:35;;;;;;;5.75;2.88;;;;;;;16.33;100.00;100945.66;5045226;28;20083;-50
2023/09/08 05:18:00;;;;;;;3.40;2.90;;;;;;;16.30;100.00;100945.28;5051797;28;20131;-50
2023/09/08 05:20:26;;;;;;;4.18;3.30;;;;;;;16.25;100.00;100940.56;5042399;28;20068;-55
2023/09/08 05:22:51;;;;;;;3.10;2.80;;;;;;;16.28;100.00;100934.78;5050536;28;20453;-53
2023/09/08 05:25:16;;;;;;;5.25;3.28;;;;;;;16.25;100.00;100937.88;5047762;28;20091;-50
2023/09/08 05:27:42;;;;;;;2.90;2.45;;;;;;;16.26;100.00;100938.72;5058128;28;20078;-54
2023/09/08 05:30:08;;;;;;;3.67;2.85;;;;;;;16.26;100.00;100947.56;5055251;28;20052;-54
2023/09/08 05:32:33;;;;;;;3.22;2.92;;;;;;;16.26;100.00;100946.72;5054748;28;20557;-52
2023/09/08 05:34:59;;;;;;;4.05;3.67;;;;;;;16.26;100.00;100952.94;5053620;28;20036;-51
2023/09/08 05:37:24;;;;;;;4.47;2.97;;;;;;;16.31;100.00;100957.59;5061371;28;20139;-53
2023/09/08 05:39:50;;;;;;;6.45;2.70;;;;;;;16.34;100.00;100952.66;5059431;28;20040;-51
2023/09/08 05:42:15;;;;;;;2.67;2.47;;;;;;;16.38;100.00;100958.38;5059218;28;20114;-51
2023/09/08 05:44:41;;;;;;;3.63;2.63;;;;;;;16.41;100.00;100960.63;5057400;28;20099;-51
2023/09/08 05:47:06;;;;;;;3.13;2.80;;;;;;;16.35;100.00;100961.50;5053290;28;20033;-52
2023/09/08 05:49:31;;;;;;;3.05;2.22;;;;;;;16.29;100.00;100955.16;5057960;28;20025;-53
2023/09/08 05:51:56;;;;;;;3.38;2.13;;;;;;;16.29;100.00;100957.84;5061470;28;20033;-52
2023/09/08 05:54:22;;;;;;;2.55;2.35;;;;;;;16.32;100.00;100964.63;5050247;28;20136;-51
2023/09/08 05:56:47;;;;;;;2.40;2.20;;;;;;;16.27;100.00;100962.59;5054304;28;20041;-52
2023/09/08 05:59:13;;;;;;;4.20;3.03;;;;;;;16.32;100.00;100965.44;5054348;28;20047;-53
2023/09/08 06:01:38;;;;;;;3.05;2.67;;;;;;;16.39;100.00;100964.53;5048578;28;20035;-52
2023/09/08 06:04:03;;;;;;;3.30;2.63;;;;;;;16.43;100.00;100971.94;5051519;28;20035;-51
2023/09/08 06:06:29;;;;;;;4.57;2.58;;;;;;;16.49;100.00;100968.38;5050561;28;20032;-52
2023/09/08 06:08:54;;;;;;;2.20;2.00;;;;;;;16.54;100.00;100973.06;5054003;28;20037;-49
2023/09/08 06:11:20;;;;;;;3.17;2.53;;;;;;;16.58;100.00;100971.63;5057944;28;20504;-54
2023/09/08 06:13:45;;;;;;;3.90;2.45;;;;;;;16.57;100.00;100962.78;5057380;28;20033;-52
2023/09/08 06:16:10;;;;;;;5.57;3.35;;;;;;;16.62;100.00;100974.66;5060092;28;20423;-49
2023/09/08 06:18:39;;;;;;;4.57;2.28;;;;;;;16.71;100.00;100968.81;5054537;28;20067;-53
2023/09/08 06:21:06;;;;;;;4.78;2.40;;;;;;;16.72;100.00;100967.75;5053314;28;20123;-51
2023/09/08 06:23:35;;;;;;;8.88;2.60;;;;;;;16.76;100.00;100966.31;5050939;28;20449;-48
2023/09/08 06:26:01;;;;;;;7.38;2.50;;;;;;;16.82;100.00;100969.97;5049423;28;20445;-51
2023/09/08 06:28:27;;;;;;;2.33;2.13;;;;;;;16.90;100.00;100977.72;5050702;28;20079;-50
2023/09/08 06:30:53;;;;;;;2.78;2.05;;;;;;;16.97;100.00;100975.00;5057465;28;20068;-53
2023/09/08 06:33:18;;;;;;;3.22;2.80;;;;;;;17.05;100.00;100973.91;5053695;28;20060;-50
2023/09/08 06:35:44;;;;;;;2.70;1.77;;;;;;;17.10;100.00;100984.75;5053094;28;20033;-52
2023/09/08 06:38:09;;;;;;;2.17;1.80;;;;;;;17.13;100.00;100990.50;5054337;28;20047;-48
2023/09/08 06:40:34;;;;;;;1.77;1.67;;;;;;;17.16;100.00;100987.34;5052685;28;20024;-52
2023/09/08 06:43:00;;;;;;;2.90;2.63;;;;;;;17.20;100.00;101003.81;5049091;28;20627;-52
2023/09/08 06:45:25;;;;;;;1.92;1.70;;;;;;;17.23;100.00;101004.19;5057759;28;20300;-52
2023/09/08 06:47:54;;;;;;;9.45;4.13;;;;;;;17.31;100.00;101005.75;5050781;28;20477;-52
2023/09/08 06:50:20;;;;;;;1.50;1.40;;;;;;;17.36;100.00;101005.91;5051392;28;20024;-52
2023/09/08 06:52:45;;;;;;;3.55;2.28;;;;;;;17.49;100.00;101013.00;5055231;28;20055;-50
2023/09/08 06:55:11;;;;;;;3.38;2.10;;;;;;;17.58;100.00;101002.78;5052760;28;20386;-48
2023/09/08 06:57:36;;;;;;;2.53;1.90;;;;;;;17.66;100.00;101010.53;5064443;28;20504;-49
2023/09/08 07:00:05;;;;;;;3.33;2.47;;;;;;;17.76;100.00;101016.19;5055577;28;20430;-53
2023/09/08 07:02:31;;;;;;;6.10;2.70;;;;;;;17.82;100.00;101011.81;5046403;28;20549;-52
2023/09/08 07:04:56;;;;;;;4.30;2.55;;;;;;;17.88;100.00;101008.22;5045488;28;20031;-52
2023/09/08 07:07:22;;;;;;;3.28;2.78;;;;;;;18.01;100.00;101015.25;5057141;28;20038;-51
2023/09/08 07:09:48;;;;;;;3.70;1.92;;;;;;;18.14;100.00;101011.59;5048796;28;20046;-51
2023/09/08 07:12:13;;;;;;;4.13;2.42;;;;;;;18.29;100.00;101015.47;5047654;28;20033;-51
2023/09/08 07:14:39;;;;;;;7.38;3.10;;;;;;;18.46;100.00;101012.97;5050473;28;20111;-56
2023/09/08 07:17:04;;;;;;;5.68;2.75;;;;;;;18.64;100.00;101013.91;5053785;28;20742;-51
2023/09/08 07:19:29;;;;;;;2.53;2.13;;;;;;;18.84;100.00;101017.13;5052633;28;20039;-53
2023/09/08 07:21:55;;;;;;;3.13;2.22;;;;;;;18.96;100.00;101012.56;5049553;28;20032;-54
2023/09/08 07:24:20;;;;;;;2.63;2.35;;;;;;;19.14;100.00;101013.50;5053134;28;20178;-50
2023/09/08 07:26:46;;;;;;;6.97;2.08;;;;;;;19.30;100.00;101007.41;5052781;28;20055;-52
2023/09/08 07:29:11;;;;;;;2.42;2.15;;;;;;;19.47;100.00;101002.13;5058107;28;20118;-54
2023/09/08 07:31:37;;;;;;;10.25;2.30;;;;;;;19.68;100.00;101005.25;5058006;28;20221;-53
2023/09/08 07:34:03;;;;;;;3.42;1.90;;;;;;;19.91;100.00;101002.50;5053479;28;20024;-52
2023/09/08 07:36:29;;;;;;;2.83;2.10;;;;;;;20.15;100.00;100989.72;5056428;28;20028;-52
2023/09/08 07:38:54;;;;;;;5.35;3.20;;;;;;;20.44;100.00;100997.75;5051328;28;20033;-54
2023/09/08 07:41:19;;;;;;;1.98;1.88;;;;;;;20.73;100.00;100995.84;5056243;28;20029;-51
2023/09/08 07:43:45;;;;;;;2.47;1.83;;;;;;;21.00;100.00;100993.28;5061384;28;20041;-50
2023/09/08 07:46:11;;;;;;;3.90;2.03;;;;;;;21.13;100.00;100984.81;5049687;28;20067;-53
2023/09/08 07:48:36;;;;;;;4.05;1.88;;;;;;;21.32;100.00;100985.38;5053372;28;20029;-54
2023/09/08 07:51:01;;;;;;;1.48;1.38;;;;;;;21.50;100.00;100981.56;5047264;28;20490;-50
2023/09/08 07:53:27;;;;;;;1.83;1.40;;;;;;;21.69;100.00;100975.84;5043922;28;20138;-54
2023/09/08 07:55:53;;;;;;;1.55;1.45;;;;;;;21.86;100.00;100962.25;5049892;28;20123;-53
2023/09/08 07:58:18;;;;;;;8.15;1.90;;;;;;;22.00;100.00;100960.78;5052512;28;20036;-50
2023/09/08 08:00:44;;;;;;;3.20;1.92;;;;;;;22.11;100.00;100964.38;5044516;28;20056;-54
2023/09/08 08:03:09;;;;;;;2.58;1.40;;;;;;;22.29;100.00;100965.94;5051469;28;20060;-54
2023/09/08 08:05:35;;;;;;;3.25;2.83;;;;;;;22.53;100.00;100958.28;5052372;28;20020;-52
2023/09/08 08:08:00;;;;;;;1.15;1.15;;;;;;;22.66;100.00;100963.22;5058550;28;20056;-52
2023/09/08 08:10:26;;;;;;;4.97;2.00;;;;;;;22.83;100.00;100954.97;5050682;28;20202;-53
2023/09/08 08:12:51;;;;;;;4.03;2.67;;;;;;;23.09;100.00;100953.25;5051176;28;20487;-54
2023/09/08 08:15:20;;;;;;;7.82;3.33;;;;;;;23.27;100.00;100952.78;5051431;28;20055;-54
2023/09/08 08:17:45;;;;;;;15.30;3.55;;;;;;;23.45;100.00;100958.81;5053145;28;20039;-50
2023/09/08 08:20:16;;;;;;;7.32;1.58;;;;;;;23.57;100.00;100953.97;5052616;28;20032;-51
2023/09/08 08:22:42;;;;;;;;;;;;;;;23.80;100.00;100944.59;5048462;28;20040;-55
2023/09/08 08:25:08;;;;;;;2.95;2.30;;;;;;;23.79;100.00;100959.19;5051487;28;19921;-53
2023/09/08 08:27:33;;;;;;;2.67;1.63;;;;;;;23.94;100.00;100953.00;5052054;28;20033;-54
2023/09/08 08:30:00;;;;;;;2.05;1.92;;;;;;;24.11;100.00;100950.03;5042765;28;20543;-51
2023/09/08 08:32:26;;;;;;;1.88;1.60;;;;;;;24.29;100.00;100940.56;5044238;28;20147;-50
2023/09/08 08:34:52;;;;;;;6.43;2.50;;;;;;;24.44;100.00;100945.97;5057205;28;20020;-52
2023/09/08 08:37:18;;;;;;;1.45;1.35;;;;;;;24.65;100.00;100946.78;5052364;28;20031;-53
2023/09/08 08:39:43;;;;;;;4.22;2.28;;;;;;;24.77;100.00;100954.63;5048387;28;20040;-54
2023/09/08 08:42:12;;;;;;;2.33;2.13;;;;;;;24.83;100.00;100958.94;5056607;28;20429;-51
2023/09/08 08:44:39;;;;;;;6.15;2.28;;;;;;;24.96;100.00;100952.97;5058662;28;20033;-51
2023/09/08 08:47:06;;;;;;;5.47;3.00;;;;;;;25.16;100.00;100945.88;5047408;28;20033;-56
2023/09/08 08:49:32;;;;;;;3.10;1.83;;;;;;;25.28;100.00;100954.50;5050803;28;20091;-50
2023/09/08 08:51:59;;;;;;;2.00;1.90;;;;;;;25.39;100.00;100956.06;5051917;28;20037;-54
2023/09/08 08:54:24;;;;;;;3.42;2.17;;;;;;;25.45;100.00;100948.72;5051635;28;20060;-54
2023/09/08 08:56:51;;;;;;;1.98;1.65;;;;;;;25.48;100.00;100950.06;5053864;28;20116;-54
2023/09/08 08:59:16;;;;;;;2.17;1.98;;;;;;;25.57;100.00;100943.75;5053345;28;20039;-55
2023/09/08 09:01:42;;;;;;;3.65;1.98;;;;;;;25.60;100.00;100948.63;5053440;28;20033;-48
2023/09/08 09:04:09;;;;;;;2.78;2.22;;;;;;;25.70;100.00;100955.91;5048222;28;20124;-53
2023/09/08 09:06:35;;;;;;;1.75;1.65;;;;;;;25.94;100.00;100944.38;5065369;28;20028;-53
2023/09/08 09:09:01;;;;;;;1.83;1.70;;;;;;;26.14;100.00;100941.50;5055323;28;20194;-53
2023/09/08 09:11:27;;;;;;;2.88;1.77;;;;;;;26.26;100.00;100939.25;5058720;28;20223;-53
2023/09/08 09:13:52;;;;;;;4.07;2.25;;;;;;;26.38;100.00;100933.41;5061501;28;20028;-54
2023/09/08 09:16:17;;;;;;;2.42;2.22;;;;;;;26.27;100.00;100932.69;5055637;28;20033;-54
2023/09/08 09:18:54;;;;;;;3.28;1.60;;;;;;;26.39;100.00;100931.53;5049288;28;20032;-54
2023/09/08 09:21:19;;;;;;;4.28;1.90;;;;;;;26.48;100.00;100924.34;5061060;28;20033;-53
2023/09/08 09:23:45;;;;;;;1.98;1.88;;;;;;;26.63;100.00;100916.06;5051862;28;20036;-56
2023/09/08 09:26:23;;;;;;;2.92;1.60;;;;;;;26.52;100.00;100912.66;5052282;28;20038;-52
2023/09/08 09:28:49;;;;;;;4.38;2.53;;;;;;;26.71;100.00;100918.16;5055309;28;20088;-52
2023/09/08 09:31:14;;;;;;;3.38;2.30;;;;;;;27.14;100.00;100915.50;5055046;28;20220;-50
2023/09/08 09:33:40;;;;;;;2.20;2.05;;;;;;;27.43;100.00;100909.16;5055162;28;20021;-54
2023/09/08 09:36:05;;;;;;;3.88;2.42;;;;;;;27.56;100.00;100910.31;5054175;28;20040;-52
2023/09/08 09:38:31;;;;;;;3.42;2.47;;;;;;;27.75;100.00;100910.31;5053920;28;20028;-51
2023/09/08 09:40:57;;;;;;;3.10;2.38;;;;;;;27.92;100.00;100909.81;5054395;28;20100;-53
2023/09/08 09:43:22;;;;;;;2.13;1.70;;;;;;;28.01;100.00;100911.56;5050860;28;20473;-53
2023/09/08 09:45:48;;;;;;;1.75;1.65;;;;;;;28.11;100.00;100912.50;5051168;28;20036;-54
2023/09/08 09:48:13;;;;;;;4.78;2.42;;;;;;;28.23;100.00;100916.38;5058365;28;20037;-55
2023/09/08 09:50:41;;;;;;;3.97;2.15;;;;;;;28.32;100.00;100908.31;5053494;28;20025;-52
2023/09/08 09:53:15;;;;;;;2.08;1.85;;;;;;;28.34;100.00;100908.81;5054036;28;20032;-52
2023/09/08 09:55:42;;;;;;;0.88;0.88;;;;;;;28.28;100.00;100904.56;5057056;28;20111;-55
2023/09/08 09:58:10;;;;;;;2.90;1.60;;;;;;;28.22;100.00;100909.31;5056076;28;20216;-53
2023/09/08 10:00:37;;;;;;;3.22;1.30;;;;;;;28.25;100.00;100919.59;5050918;28;20092;-53
2023/09/08 10:03:03;;;;;;;1.85;1.75;;;;;;;28.30;100.00;100924.16;5059913;28;20028;-53
2023/09/08 10:05:29;;;;;;;1.63;1.50;;;;;;;28.27;100.00;100916.59;5054688;28;20556;-50
2023/09/08 10:07:55;;;;;;;1.65;1.55;;;;;;;28.26;100.00;100921.22;5052951;28;20035;-52
2023/09/08 10:10:21;;;;;;;1.70;1.60;;;;;;;28.37;100.00;100921.03;5055272;28;20382;-53
2023/09/08 10:12:54;;;;;;;1.90;1.70;;;;;;;28.51;100.00;100923.84;5060993;28;20475;-52
2023/09/08 10:15:24;;;;;;;6.38;2.10;;;;;;;28.63;100.00;100921.41;5060104;28;20059;-55
2023/09/08 10:17:57;;;;;;;3.33;1.40;;;;;;;28.63;100.00;100918.69;5055541;28;20048;-54
2023/09/08 10:20:26;;;;;;;2.33;1.88;;;;;;;28.77;100.00;100922.22;5051663;28;20028;-54
2023/09/08 10:23:04;;;;;;;3.15;1.80;;;;;;;28.79;100.00;100913.75;5067073;28;20040;-55
2023/09/08 10:25:35;;;;;;;1.27;1.27;;;;;;;28.89;100.00;100911.63;5050233;28;20029;-53
2023/09/08 10:28:01;;;;;;;2.80;2.25;;;;;;;29.01;100.00;100922.03;5052653;28;20056;-51
2023/09/08 10:30:26;;;;;;;1.27;1.17;;;;;;;29.00;100.00;100914.16;5051906;28;20032;-52
2023/09/08 10:32:52;;;;;;;1.83;1.73;;;;;;;29.16;100.00;100909.22;5045623;28;20067;-55
2023/09/08 10:35:19;;;;;;;2.08;1.85;;;;;;;29.41;100.00;100910.59;5049917;28;20040;-51
2023/09/08 10:37:44;;;;;;;4.47;2.88;;;;;;;29.78;100.00;100909.47;5058368;28;20511;-53
2023/09/08 10:40:33;;;;;;;7.13;2.00;;;;;;;29.89;100.00;100908.09;5048528;28;20063;-53
2023/09/08 10:43:18;;;;;;;5.30;1.85;;;;;;;29.99;100.00;100915.22;5057810;28;20046;-52
2023/09/08 10:45:45;;;;;;;3.35;1.58;;;;;;;29.84;100.00;100913.69;5050263;28;20036;-53
2023/09/08 10:48:11;;;;;;;2.95;2.65;;;;;;;29.76;100.00;100917.16;5052998;28;20037;-54
2023/09/08 10:50:40;;;;;;;4.00;2.05;;;;;;;29.69;100.00;100912.13;5056092;28;20453;-51
2023/09/08 10:53:17;;;;;;;3.10;2.80;;;;;;;29.64;100.00;100908.69;5051364;28;20029;-55
2023/09/08 10:55:50;;;;;;;3.63;3.00;;;;;;;29.71;100.00;100917.28;5058382;28;20111;-53
2023/09/08 10:58:37;;;;;;;3.03;2.13;;;;;;;29.95;100.00;100915.06;5056470;28;20052;-56
2023/09/08 11:01:04;;;;;;;6.10;2.78;;;;;;;29.96;100.00;100915.88;5052819;28;20043;-53
2023/09/08 11:03:41;;;;;;;4.82;1.88;;;;;;;30.11;100.00;100911.94;5051228;28;20056;-55
2023/09/08 11:06:07;;;;;;;2.38;2.25;;;;;;;30.12;100.00;100917.09;5053818;28;20036;-53
2023/09/08 11:08:34;;;;;;;2.22;2.00;;;;;;;30.42;100.00;100909.25;5049090;28;20024;-52
2023/09/08 11:11:01;;;;;;;4.32;2.90;;;;;;;30.60;100.00;100912.88;5055408;28;20119;-53
2023/09/08 11:13:27;;;;;;;4.15;2.50;;;;;;;30.54;100.00;100904.00;5055668;28;20195;-54